Time,TemperatureF,DewpointF,PressureIn,WindDirection,WindDirectionDegrees,WindSpeedMPH,WindSpeedGustMPH,Humidity,HourlyPrecipIn,Conditions,Clouds,dailyrainin,SoftwareType,DateUTC
2013-02-08 00:01:00,28.5,23.1,30.28,North,355,3.0,11.0,80,0.00,,---,0.00,VWS V14.01,2013-02-08 06:01:00,
2013-02-08 00:07:00,28.4,23.0,30.28,North,360,2.0,8.0,80,0.00,,---,0.00,VWS V14.01,2013-02-08 06:07:00,
2013-02-08 00:13:00,28.3,23.2,30.28,North,360,0.0,8.0,81,0.00,,---,0.00,VWS V14.01,2013-02-08 06:13:00,
2013-02-08 00:19:00,28.1,23.0,30.29,North,360,3.0,8.0,81,0.00,,---,0.00,VWS V14.01,2013-02-08 06:19:00,
2013-02-08 00:25:00,27.8,22.7,30.29,NNW,333,3.0,8.0,81,0.00,,---,0.00,VWS V14.01,2013-02-08 06:25:00,
2013-02-08 00:31:00,27.6,22.5,30.29,NNW,327,1.0,8.0,81,0.00,,---,0.00,VWS V14.01,2013-02-08 06:31:00,
2013-02-08 00:37:00,27.2,22.4,30.29,NNW,328,3.0,4.0,82,0.00,,---,0.00,VWS V14.01,2013-02-08 06:37:00,
2013-02-08 00:43:00,27.0,22.2,30.30,NNW,328,0.0,4.0,82,0.00,,---,0.00,VWS V14.01,2013-02-08 06:43:00,
2013-02-08 00:49:00,26.9,22.1,30.29,NNW,328,2.0,4.0,82,0.00,,---,0.00,VWS V14.01,2013-02-08 06:49:00,
2013-02-08 00:55:00,26.7,22.2,30.30,NNW,328,0.0,4.0,83,0.00,,---,0.00,VWS V14.01,2013-02-08 06:55:00,
2013-02-08 01:01:00,26.6,22.1,30.30,NNW,328,2.0,4.0,83,0.00,,---,0.00,VWS V14.01,2013-02-08 07:01:00,
2013-02-08 01:07:00,26.5,22.0,30.30,NNW,327,1.0,4.0,83,0.00,,---,0.00,VWS V14.01,2013-02-08 07:07:00,
2013-02-08 01:13:00,26.6,22.4,30.29,NNW,328,2.0,4.0,84,0.00,,---,0.00,VWS V14.01,2013-02-08 07:13:00,
2013-02-08 01:19:00,26.6,22.4,30.29,NNW,331,4.0,5.0,84,0.00,,---,0.00,VWS V14.01,2013-02-08 07:19:00,
2013-02-08 01:25:00,26.8,22.6,30.30,NNW,333,5.0,5.0,84,0.00,,---,0.00,VWS V14.01,2013-02-08 07:25:00,
2013-02-08 01:31:00,27.2,22.7,30.30,North,11,4.0,8.0,83,0.00,,---,0.00,VWS V14.01,2013-02-08 07:31:00,
2013-02-08 01:37:00,27.7,22.9,30.30,North,5,3.0,7.0,82,0.00,,---,0.00,VWS V14.01,2013-02-08 07:37:00,
2013-02-08 01:43:00,27.9,22.8,30.30,North,360,4.0,9.0,81,0.00,,---,0.00,VWS V14.01,2013-02-08 07:43:00,
2013-02-08 01:50:00,28.0,22.9,30.30,North,360,1.0,9.0,81,0.00,,---,0.00,VWS V14.01,2013-02-08 07:50:00,
2013-02-08 01:56:00,27.9,22.8,30.29,North,360,4.0,9.0,81,0.00,,---,0.00,VWS V14.01,2013-02-08 07:56:00,
2013-02-08 02:01:00,27.9,22.8,30.29,North,5,4.0,9.0,81,0.00,,---,0.00,VWS V14.01,2013-02-08 08:01:00,
2013-02-08 02:06:00,27.8,22.7,30.29,North,350,3.0,7.0,81,0.00,,---,0.00,VWS V14.01,2013-02-08 08:06:00,
2013-02-08 02:12:00,27.7,22.9,30.30,NNW,333,9.0,9.0,82,0.00,,---,0.00,VWS V14.01,2013-02-08 08:12:00,
2013-02-08 02:18:00,27.7,22.9,30.30,North,355,5.0,9.0,82,0.00,,---,0.00,VWS V14.01,2013-02-08 08:18:00,
2013-02-08 02:24:00,27.7,22.9,30.31,North,9,7.0,9.0,82,0.00,,---,0.00,VWS V14.01,2013-02-08 08:24:00,
2013-02-08 02:30:00,27.6,22.8,30.31,North,355,4.0,9.0,82,0.00,,---,0.00,VWS V14.01,2013-02-08 08:30:00,
2013-02-08 02:36:00,27.6,23.1,30.31,North,355,2.0,5.0,83,0.00,,---,0.00,VWS V14.01,2013-02-08 08:36:00,
2013-02-08 02:42:00,27.6,23.1,30.31,North,355,3.0,6.0,83,0.00,,---,0.00,VWS V14.01,2013-02-08 08:42:00,
2013-02-08 02:48:00,27.7,23.2,30.31,NNE,13,3.0,6.0,83,0.00,,---,0.00,VWS V14.01,2013-02-08 08:48:00,
2013-02-08 02:54:00,27.6,23.1,30.31,NNE,13,0.0,6.0,83,0.00,,---,0.00,VWS V14.01,2013-02-08 08:54:00,
2013-02-08 03:00:00,27.6,23.1,30.31,NNE,24,3.0,6.0,83,0.00,,---,0.00,VWS V14.01,2013-02-08 09:00:00,
2013-02-08 03:06:00,27.5,23.0,30.31,NNE,25,1.0,5.0,83,0.00,,---,0.00,VWS V14.01,2013-02-08 09:06:00,
2013-02-08 03:12:00,27.5,23.0,30.32,NNE,25,1.0,5.0,83,0.00,,---,0.00,VWS V14.01,2013-02-08 09:12:00,
2013-02-08 03:18:00,27.4,22.9,30.31,NNW,346,0.0,5.0,83,0.00,,---,0.00,VWS V14.01,2013-02-08 09:18:00,
2013-02-08 03:24:00,27.3,22.8,30.32,North,5,2.0,6.0,83,0.00,,---,0.00,VWS V14.01,2013-02-08 09:24:00,
2013-02-08 03:30:00,27.3,23.1,30.32,North,5,0.0,6.0,84,0.00,,---,0.00,VWS V14.01,2013-02-08 09:30:00,
2013-02-08 03:36:00,27.2,23.0,30.32,North,11,0.0,5.0,84,0.00,,---,0.00,VWS V14.01,2013-02-08 09:36:00,
2013-02-08 03:42:00,27.1,22.9,30.32,NNE,12,2.0,5.0,84,0.00,,---,0.00,VWS V14.01,2013-02-08 09:42:00,
2013-02-08 03:48:00,27.0,23.1,30.32,NNE,13,2.0,5.0,85,0.00,,---,0.00,VWS V14.01,2013-02-08 09:48:00,
2013-02-08 03:54:00,26.8,22.9,30.32,NNE,15,2.0,6.0,85,0.00,,---,0.00,VWS V14.01,2013-02-08 09:54:00,
2013-02-08 04:00:00,26.6,22.7,30.32,NNE,24,1.0,8.0,85,0.00,,---,0.00,VWS V14.01,2013-02-08 10:00:00,
2013-02-08 04:07:00,26.4,22.5,30.31,NNE,24,1.0,5.0,85,0.00,,---,0.00,VWS V14.01,2013-02-08 10:07:00,
2013-02-08 04:13:00,26.3,22.7,30.32,NNE,24,1.0,5.0,86,0.00,,---,0.00,VWS V14.01,2013-02-08 10:13:00,
2013-02-08 04:19:00,26.2,22.6,30.32,NNE,26,2.0,5.0,86,0.00,,---,0.00,VWS V14.01,2013-02-08 10:19:00,
2013-02-08 04:25:00,26.1,22.5,30.32,ENE,69,0.0,5.0,86,0.00,,---,0.00,VWS V14.01,2013-02-08 10:25:00,
2013-02-08 04:31:00,26.1,22.5,30.32,NE,53,1.0,5.0,86,0.00,,---,0.00,VWS V14.01,2013-02-08 10:31:00,
2013-02-08 04:37:00,26.1,22.5,30.32,North,11,4.0,5.0,86,0.00,,---,0.00,VWS V14.01,2013-02-08 10:37:00,
2013-02-08 04:43:00,26.0,22.4,30.32,NNW,337,0.0,5.0,86,0.00,,---,0.00,VWS V14.01,2013-02-08 10:43:00,
2013-02-08 04:49:00,25.8,22.2,30.32,NE,34,0.0,6.0,86,0.00,,---,0.00,VWS V14.01,2013-02-08 10:49:00,
2013-02-08 04:55:00,25.8,22.2,30.32,East,88,6.0,6.0,86,0.00,,---,0.00,VWS V14.01,2013-02-08 10:55:00,
2013-02-08 05:01:00,25.5,21.9,30.32,ENE,69,2.0,6.0,86,0.00,,---,0.00,VWS V14.01,2013-02-08 11:01:00,
2013-02-08 05:07:00,25.4,21.8,30.32,NE,44,1.0,5.0,86,0.00,,---,0.00,VWS V14.01,2013-02-08 11:07:00,
2013-02-08 05:13:00,25.2,21.9,30.32,ENE,76,3.0,7.0,87,0.00,,---,0.00,VWS V14.01,2013-02-08 11:13:00,
2013-02-08 05:19:00,25.2,21.9,30.33,ENE,65,0.0,7.0,87,0.00,,---,0.00,VWS V14.01,2013-02-08 11:19:00,
2013-02-08 05:25:00,25.2,21.9,30.33,NE,34,1.0,7.0,87,0.00,,---,0.00,VWS V14.01,2013-02-08 11:25:00,
2013-02-08 05:31:00,25.2,21.9,30.33,NE,41,2.0,7.0,87,0.00,,---,0.00,VWS V14.01,2013-02-08 11:31:00,
2013-02-08 05:37:00,25.1,21.8,30.33,NE,51,0.0,4.0,87,0.00,,---,0.00,VWS V14.01,2013-02-08 11:37:00,
2013-02-08 05:43:00,25.1,22.0,30.33,NE,56,0.0,4.0,88,0.00,,---,0.00,VWS V14.01,2013-02-08 11:43:00,
2013-02-08 05:49:00,24.9,21.6,30.34,ENE,65,0.0,4.0,87,0.00,,---,0.00,VWS V14.01,2013-02-08 11:49:00,
2013-02-08 05:55:00,24.9,21.9,30.34,East,91,2.0,4.0,88,0.00,,---,0.00,VWS V14.01,2013-02-08 11:55:00,
2013-02-08 06:01:00,24.9,21.9,30.34,East,97,3.0,4.0,88,0.00,,---,0.00,VWS V14.01,2013-02-08 12:01:00,
2013-02-08 06:07:00,24.8,21.8,30.34,East,98,0.0,3.0,88,0.00,,---,0.00,VWS V14.01,2013-02-08 12:07:00,
2013-02-08 06:14:00,24.8,21.8,30.34,North,9,0.0,3.0,88,0.00,,---,0.00,VWS V14.01,2013-02-08 12:14:00,
2013-02-08 06:20:00,24.8,21.8,30.34,North,9,0.0,3.0,88,0.00,,---,0.00,VWS V14.01,2013-02-08 12:20:00,
2013-02-08 06:26:00,24.8,21.8,30.34,North,9,0.0,3.0,88,0.00,,---,0.00,VWS V14.01,2013-02-08 12:26:00,
2013-02-08 06:31:00,24.8,21.8,30.35,North,9,0.0,3.0,88,0.00,,---,0.00,VWS V14.01,2013-02-08 12:31:00,
2013-02-08 06:36:00,24.8,21.8,30.34,North,9,0.0,0.0,88,0.00,,---,0.00,VWS V14.01,2013-02-08 12:36:00,
2013-02-08 06:42:00,24.8,21.8,30.35,North,9,0.0,0.0,88,0.00,,---,0.00,VWS V14.01,2013-02-08 12:42:00,
2013-02-08 06:48:00,24.8,21.8,30.35,North,9,0.0,0.0,88,0.00,,---,0.00,VWS V14.01,2013-02-08 12:48:00,
2013-02-08 06:54:00,24.8,21.8,30.35,North,9,0.0,0.0,88,0.00,,---,0.00,VWS V14.01,2013-02-08 12:54:00,
2013-02-08 07:00:00,24.9,22.1,30.35,North,9,0.0,0.0,89,0.00,,---,0.00,VWS V14.01,2013-02-08 13:00:00,
2013-02-08 07:06:00,24.9,22.1,30.35,North,9,0.0,0.0,89,0.00,,---,0.00,VWS V14.01,2013-02-08 13:06:00,
2013-02-08 07:12:00,24.9,22.1,30.35,NNE,13,0.0,3.0,89,0.00,,---,0.00,VWS V14.01,2013-02-08 13:12:00,
2013-02-08 07:18:00,24.9,22.1,30.35,NNE,13,0.0,3.0,89,0.00,,---,0.00,VWS V14.01,2013-02-08 13:18:00,
2013-02-08 07:24:00,24.9,22.1,30.35,ESE,109,0.0,3.0,89,0.00,,---,0.00,VWS V14.01,2013-02-08 13:24:00,
2013-02-08 07:30:00,24.8,22.0,30.35,ESE,110,2.0,4.0,89,0.00,,---,0.00,VWS V14.01,2013-02-08 13:30:00,
2013-02-08 07:36:00,24.7,21.9,30.35,ESE,110,0.0,2.0,89,0.00,,---,0.00,VWS V14.01,2013-02-08 13:36:00,
2013-02-08 07:42:00,24.7,21.9,30.35,ESE,110,0.0,2.0,89,0.00,,---,0.00,VWS V14.01,2013-02-08 13:42:00,
2013-02-08 07:48:00,24.7,21.9,30.35,ESE,110,0.0,2.0,89,0.00,,---,0.00,VWS V14.01,2013-02-08 13:48:00,
2013-02-08 07:54:00,24.8,22.0,30.35,ESE,110,0.0,2.0,89,0.00,,---,0.00,VWS V14.01,2013-02-08 13:54:00,
2013-02-08 08:00:00,24.8,22.0,30.35,ESE,110,1.0,2.0,89,0.00,,---,0.00,VWS V14.01,2013-02-08 14:00:00,
2013-02-08 08:06:00,24.8,22.0,30.35,ENE,69,3.0,5.0,89,0.00,,---,0.00,VWS V14.01,2013-02-08 14:06:00,
2013-02-08 08:13:00,24.7,21.9,30.35,ESE,103,2.0,5.0,89,0.00,,---,0.00,VWS V14.01,2013-02-08 14:13:00,
2013-02-08 08:19:00,24.5,21.7,30.36,ESE,111,2.0,7.0,89,0.00,,---,0.00,VWS V14.01,2013-02-08 14:19:00,
2013-02-08 08:25:00,24.3,21.5,30.36,ESE,111,2.0,7.0,89,0.00,,---,0.00,VWS V14.01,2013-02-08 14:25:00,
2013-02-08 08:31:00,24.3,21.5,30.36,ESE,114,2.0,7.0,89,0.00,,---,0.00,VWS V14.01,2013-02-08 14:31:00,
2013-02-08 08:37:00,24.3,21.5,30.36,ESE,114,0.0,4.0,89,0.00,,---,0.00,VWS V14.01,2013-02-08 14:37:00,
2013-02-08 08:43:00,24.5,22.0,30.36,ESE,113,2.0,4.0,90,0.00,,---,0.00,VWS V14.01,2013-02-08 14:43:00,
2013-02-08 08:49:00,24.5,22.0,30.36,East,98,3.0,8.0,90,0.00,,---,0.00,VWS V14.01,2013-02-08 14:49:00,
2013-02-08 08:55:00,24.5,22.0,30.36,East,86,2.0,8.0,90,0.00,,---,0.00,VWS V14.01,2013-02-08 14:55:00,
2013-02-08 09:01:00,24.4,21.6,30.36,ESE,113,3.0,8.0,89,0.00,,---,0.00,VWS V14.01,2013-02-08 15:01:00,
2013-02-08 09:07:00,24.3,21.8,30.36,ESE,115,4.0,5.0,90,0.00,,---,0.00,VWS V14.01,2013-02-08 15:07:00,
2013-02-08 09:13:00,24.3,21.8,30.36,ESE,116,2.0,7.0,90,0.00,,---,0.00,VWS V14.01,2013-02-08 15:13:00,
2013-02-08 09:19:00,24.4,21.9,30.36,East,80,2.0,7.0,90,0.00,,---,0.00,VWS V14.01,2013-02-08 15:19:00,
2013-02-08 09:25:00,24.6,22.1,30.36,ESE,109,4.0,7.0,90,0.00,,---,0.00,VWS V14.01,2013-02-08 15:25:00,
2013-02-08 09:31:00,24.8,22.3,30.36,ESE,102,0.0,7.0,90,0.00,,---,0.00,VWS V14.01,2013-02-08 15:31:00,
2013-02-08 09:37:00,25.0,22.5,30.36,ESE,113,0.0,4.0,90,0.00,,---,0.00,VWS V14.01,2013-02-08 15:37:00,
2013-02-08 09:43:00,25.1,22.6,30.36,ESE,118,0.0,8.0,90,0.00,,---,0.00,VWS V14.01,2013-02-08 15:43:00,
2013-02-08 09:49:00,25.2,22.7,30.36,East,90,5.0,8.0,90,0.00,,---,0.00,VWS V14.01,2013-02-08 15:49:00,
2013-02-08 09:56:00,25.3,22.8,30.36,ESE,107,3.0,8.0,90,0.00,,---,0.00,VWS V14.01,2013-02-08 15:56:00,
2013-02-08 10:01:00,25.4,22.9,30.36,ESE,104,3.0,8.0,90,0.00,,---,0.00,VWS V14.01,2013-02-08 16:01:00,
2013-02-08 10:06:00,25.4,22.6,30.36,ESE,111,2.0,5.0,89,0.00,,---,0.00,VWS V14.01,2013-02-08 16:06:00,
2013-02-08 10:12:00,25.4,22.6,30.36,ESE,118,2.0,6.0,89,0.00,,---,0.00,VWS V14.01,2013-02-08 16:12:00,
2013-02-08 10:18:00,25.4,22.6,30.36,SE,130,3.0,6.0,89,0.00,,---,0.00,VWS V14.01,2013-02-08 16:18:00,
2013-02-08 10:24:00,25.4,22.6,30.36,East,96,5.0,8.0,89,0.00,,---,0.00,VWS V14.01,2013-02-08 16:24:00,
2013-02-08 10:30:00,25.6,22.8,30.36,ESE,115,2.0,8.0,89,0.00,,---,0.00,VWS V14.01,2013-02-08 16:30:00,
2013-02-08 10:36:00,25.8,23.0,30.37,SE,146,1.0,2.0,89,0.00,,---,0.00,VWS V14.01,2013-02-08 16:36:00,
2013-02-08 10:42:00,25.9,23.1,30.37,ESE,109,2.0,7.0,89,0.00,,---,0.00,VWS V14.01,2013-02-08 16:42:00,
2013-02-08 10:48:00,25.9,23.1,30.37,ESE,118,2.0,7.0,89,0.00,,---,0.00,VWS V14.01,2013-02-08 16:48:00,
2013-02-08 10:54:00,26.0,23.2,30.38,East,88,2.0,7.0,89,0.00,,---,0.00,VWS V14.01,2013-02-08 16:54:00,
2013-02-08 11:00:00,26.2,23.4,30.38,ESE,111,4.0,7.0,89,0.00,,---,0.00,VWS V14.01,2013-02-08 17:00:00,
2013-02-08 11:07:00,26.1,23.0,30.38,ESE,106,2.0,9.0,88,0.00,,---,0.00,VWS V14.01,2013-02-08 17:07:00,
2013-02-08 11:13:00,26.2,23.1,30.38,ESE,102,0.0,9.0,88,0.00,,---,0.00,VWS V14.01,2013-02-08 17:13:00,
2013-02-08 11:19:00,26.5,23.4,30.38,South,172,0.0,9.0,88,0.00,,---,0.00,VWS V14.01,2013-02-08 17:19:00,
2013-02-08 11:25:00,26.9,23.8,30.38,South,172,0.0,9.0,88,0.00,,---,0.00,VWS V14.01,2013-02-08 17:25:00,
2013-02-08 11:31:00,27.1,24.0,30.38,South,172,0.0,9.0,88,0.00,,---,0.00,VWS V14.01,2013-02-08 17:31:00,
2013-02-08 11:37:00,27.0,23.6,30.38,ESE,114,2.0,3.0,87,0.00,,---,0.00,VWS V14.01,2013-02-08 17:37:00,
2013-02-08 11:43:00,27.0,23.6,30.38,SE,132,0.0,7.0,87,0.00,,---,0.00,VWS V14.01,2013-02-08 17:43:00,
2013-02-08 11:49:00,27.0,23.6,30.38,East,99,3.0,7.0,87,0.00,,---,0.00,VWS V14.01,2013-02-08 17:49:00,
2013-02-08 11:55:00,27.0,23.4,30.38,ESE,111,1.0,7.0,86,0.00,,---,0.00,VWS V14.01,2013-02-08 17:55:00,
2013-02-08 12:01:00,27.2,23.9,30.38,ESE,122,3.0,7.0,87,0.00,,---,0.00,VWS V14.01,2013-02-08 18:01:00,
2013-02-08 12:07:00,27.4,23.8,30.38,ESE,123,0.0,3.0,86,0.00,,---,0.00,VWS V14.01,2013-02-08 18:07:00,
2013-02-08 12:14:00,27.5,23.9,30.38,SW,214,0.0,7.0,86,0.00,,---,0.00,VWS V14.01,2013-02-08 18:14:00,
2013-02-08 12:20:00,27.9,24.3,30.38,SW,215,0.0,7.0,86,0.00,,---,0.00,VWS V14.01,2013-02-08 18:20:00,
2013-02-08 12:26:00,28.1,24.5,30.37,SE,128,3.0,7.0,86,0.00,,---,0.00,VWS V14.01,2013-02-08 18:26:00,
2013-02-08 12:32:00,27.9,24.3,30.37,ESE,113,0.0,3.0,86,0.00,,---,0.00,VWS V14.01,2013-02-08 18:32:00,
2013-02-08 12:38:00,28.2,24.6,30.37,SE,140,0.0,3.0,86,0.00,,---,0.00,VWS V14.01,2013-02-08 18:38:00,
2013-02-08 12:44:00,28.6,24.7,30.36,SW,235,0.0,7.0,85,0.00,,---,0.00,VWS V14.01,2013-02-08 18:44:00,
2013-02-08 12:50:00,28.5,24.3,30.36,ESE,123,0.0,8.0,84,0.00,,---,0.00,VWS V14.01,2013-02-08 18:50:00,
2013-02-08 12:57:00,28.7,24.8,30.35,SE,146,3.0,8.0,85,0.00,,---,0.00,VWS V14.01,2013-02-08 18:57:00,
2013-02-08 13:03:00,28.8,24.6,30.35,ESE,122,3.0,5.0,84,0.00,,---,0.00,VWS V14.01,2013-02-08 19:03:00,
2013-02-08 13:09:00,28.7,24.5,30.35,ESE,115,4.0,9.0,84,0.00,,---,0.00,VWS V14.01,2013-02-08 19:09:00,
2013-02-08 13:15:00,28.4,24.2,30.34,ESE,117,4.0,9.0,84,0.00,,---,0.00,VWS V14.01,2013-02-08 19:15:00,
2013-02-08 13:21:00,28.8,24.9,30.33,SE,145,4.0,9.0,85,0.00,,---,0.00,VWS V14.01,2013-02-08 19:21:00,
2013-02-08 13:27:00,29.0,25.1,30.33,ESE,113,0.0,9.0,85,0.00,,---,0.00,VWS V14.01,2013-02-08 19:27:00,
2013-02-08 13:33:00,29.2,25.0,30.33,East,98,5.0,10.0,84,0.00,,---,0.00,VWS V14.01,2013-02-08 19:33:00,
2013-02-08 13:39:00,29.6,25.4,30.32,East,99,7.0,10.0,84,0.00,,---,0.00,VWS V14.01,2013-02-08 19:39:00,
2013-02-08 13:45:00,30.1,26.1,30.32,South,170,3.0,10.0,85,0.00,,---,0.00,VWS V14.01,2013-02-08 19:45:00,
2013-02-08 13:51:00,30.6,25.8,30.31,ESE,102,8.0,10.0,82,0.00,,---,0.00,VWS V14.01,2013-02-08 19:51:00,
2013-02-08 13:57:00,30.5,25.7,30.31,North,360,0.0,10.0,82,0.00,,---,0.00,VWS V14.01,2013-02-08 19:57:00,
2013-02-08 14:03:00,30.4,25.6,30.31,ESE,118,7.0,9.0,82,0.00,,---,0.00,VWS V14.01,2013-02-08 20:03:00,
2013-02-08 14:09:00,30.0,25.2,30.31,ESE,118,4.0,11.0,82,0.00,,---,0.00,VWS V14.01,2013-02-08 20:09:00,
2013-02-08 14:15:00,30.1,25.6,30.30,ESE,121,7.0,11.0,83,0.00,,---,0.00,VWS V14.01,2013-02-08 20:15:00,
2013-02-08 14:21:00,29.9,25.1,30.29,ESE,109,9.0,11.0,82,0.00,,---,0.00,VWS V14.01,2013-02-08 20:21:00,
2013-02-08 14:28:00,30.3,25.8,30.28,East,83,7.0,11.0,83,0.00,,---,0.00,VWS V14.01,2013-02-08 20:28:00,
2013-02-08 14:34:00,30.1,25.3,30.27,ESE,108,7.0,11.0,82,0.00,,---,0.00,VWS V14.01,2013-02-08 20:34:00,
2013-02-08 14:40:00,29.9,25.4,30.27,SE,128,5.0,12.0,83,0.00,,---,0.00,VWS V14.01,2013-02-08 20:40:00,
2013-02-08 14:46:00,29.9,25.1,30.27,ESE,119,4.0,12.0,82,0.00,,---,0.00,VWS V14.01,2013-02-08 20:46:00,
2013-02-08 14:52:00,30.1,25.6,30.27,SE,126,5.0,12.0,83,0.00,,---,0.00,VWS V14.01,2013-02-08 20:52:00,
2013-02-08 14:58:00,30.4,25.9,30.27,ESE,109,5.0,13.0,83,0.00,,---,0.00,VWS V14.01,2013-02-08 20:58:00,
2013-02-08 15:04:00,30.5,26.0,30.26,ESE,114,7.0,10.0,83,0.00,,---,0.00,VWS V14.01,2013-02-08 21:04:00,
2013-02-08 15:10:00,30.5,26.0,30.27,ESE,121,7.0,11.0,83,0.00,,---,0.00,VWS V14.01,2013-02-08 21:10:00,
2013-02-08 15:16:00,30.7,26.2,30.27,ESE,117,5.0,11.0,83,0.00,,---,0.00,VWS V14.01,2013-02-08 21:16:00,
2013-02-08 15:22:00,30.9,26.4,30.27,ESE,115,7.0,11.0,83,0.00,,---,0.00,VWS V14.01,2013-02-08 21:22:00,
2013-02-08 15:28:00,30.9,26.4,30.26,ESE,113,3.0,11.0,83,0.00,,---,0.00,VWS V14.01,2013-02-08 21:28:00,
2013-02-08 15:34:00,31.2,26.6,30.26,ESE,117,5.0,12.0,83,0.00,,---,0.00,VWS V14.01,2013-02-08 21:34:00,
2013-02-08 15:40:00,31.3,26.5,30.26,SE,131,7.0,12.0,82,0.00,,---,0.00,VWS V14.01,2013-02-08 21:40:00,
2013-02-08 15:46:00,31.4,26.5,30.26,ESE,121,3.0,12.0,82,0.00,,---,0.00,VWS V14.01,2013-02-08 21:46:00,
2013-02-08 15:52:00,31.5,26.6,30.25,East,80,6.0,12.0,82,0.00,,---,0.00,VWS V14.01,2013-02-08 21:52:00,
2013-02-08 15:58:00,31.3,26.5,30.25,ESE,107,9.0,13.0,82,0.00,,---,0.00,VWS V14.01,2013-02-08 21:58:00,
2013-02-08 16:04:00,31.1,26.5,30.24,SE,125,6.0,11.0,83,0.00,,---,0.00,VWS V14.01,2013-02-08 22:04:00,
2013-02-08 16:10:00,31.1,26.5,30.24,ESE,106,10.0,11.0,83,0.00,,---,0.00,VWS V14.01,2013-02-08 22:10:00,
2013-02-08 16:16:00,31.1,26.5,30.24,ESE,106,8.0,11.0,83,0.00,,---,0.00,VWS V14.01,2013-02-08 22:16:00,
2013-02-08 16:23:00,30.9,26.4,30.25,East,88,7.0,14.0,83,0.00,,---,0.00,VWS V14.01,2013-02-08 22:23:00,
2013-02-08 16:29:00,30.8,26.3,30.24,ESE,122,7.0,14.0,83,0.00,,---,0.00,VWS V14.01,2013-02-08 22:29:00,
2013-02-08 16:35:00,30.6,26.1,30.24,ESE,113,5.0,11.0,83,0.00,,---,0.00,VWS V14.01,2013-02-08 22:35:00,
2013-02-08 16:41:00,30.6,26.1,30.24,ESE,103,1.0,11.0,83,0.00,,---,0.00,VWS V14.01,2013-02-08 22:41:00,
2013-02-08 16:47:00,30.6,26.1,30.23,ESE,119,8.0,12.0,83,0.00,,---,0.00,VWS V14.01,2013-02-08 22:47:00,
2013-02-08 16:53:00,30.6,26.1,30.24,ESE,121,8.0,12.0,83,0.00,,---,0.00,VWS V14.01,2013-02-08 22:53:00,
2013-02-08 16:59:00,30.6,26.1,30.24,ESE,110,4.0,12.0,83,0.00,,---,0.00,VWS V14.01,2013-02-08 22:59:00,
2013-02-08 17:05:00,30.7,26.2,30.24,ESE,115,3.0,10.0,83,0.00,,---,0.00,VWS V14.01,2013-02-08 23:05:00,
2013-02-08 17:11:00,30.7,26.2,30.24,ESE,118,4.0,10.0,83,0.00,,---,0.00,VWS V14.01,2013-02-08 23:11:00,
2013-02-08 17:17:00,30.7,26.2,30.24,ESE,113,3.0,10.0,83,0.00,,---,0.00,VWS V14.01,2013-02-08 23:17:00,
2013-02-08 17:23:00,30.7,26.2,30.23,ESE,107,3.0,11.0,83,0.00,,---,0.00,VWS V14.01,2013-02-08 23:23:00,
2013-02-08 17:29:00,30.6,26.4,30.23,SE,128,5.0,11.0,84,0.00,,---,0.00,VWS V14.01,2013-02-08 23:29:00,
2013-02-08 17:35:00,30.5,26.2,30.23,ESE,119,4.0,10.0,84,0.00,,---,0.00,VWS V14.01,2013-02-08 23:35:00,
2013-02-08 17:41:00,30.4,26.1,30.23,ESE,107,3.0,10.0,84,0.00,,---,0.00,VWS V14.01,2013-02-08 23:41:00,
2013-02-08 17:47:00,30.2,26.0,30.23,ESE,121,5.0,10.0,84,0.00,,---,0.00,VWS V14.01,2013-02-08 23:47:00,
2013-02-08 17:53:00,30.2,26.2,30.24,ESE,119,3.0,10.0,85,0.00,,---,0.00,VWS V14.01,2013-02-08 23:53:00,
2013-02-08 17:59:00,30.1,26.1,30.23,SE,127,6.0,11.0,85,0.00,,---,0.00,VWS V14.01,2013-02-08 23:59:00,
2013-02-08 18:05:00,30.1,26.1,30.23,ESE,121,7.0,11.0,85,0.00,,---,0.00,VWS V14.01,2013-02-09 00:05:00,
2013-02-08 18:11:00,30.0,26.3,30.22,East,101,8.0,11.0,86,0.00,,---,0.00,VWS V14.01,2013-02-09 00:11:00,
2013-02-08 18:17:00,29.9,26.2,30.21,ESE,109,4.0,11.0,86,0.00,,---,0.00,VWS V14.01,2013-02-09 00:17:00,
2013-02-08 18:23:00,29.7,26.0,30.22,ESE,113,7.0,11.0,86,0.00,,---,0.00,VWS V14.01,2013-02-09 00:23:00,
2013-02-08 18:29:00,29.6,26.2,30.22,ESE,117,9.0,11.0,87,0.00,,---,0.00,VWS V14.01,2013-02-09 00:29:00,
2013-02-08 18:35:00,29.6,26.2,30.22,East,95,2.0,9.0,87,0.00,,---,0.00,VWS V14.01,2013-02-09 00:35:00,
2013-02-08 18:41:00,29.5,26.1,30.22,ESE,121,7.0,9.0,87,0.00,,---,0.00,VWS V14.01,2013-02-09 00:41:00,
2013-02-08 18:48:00,29.4,26.0,30.22,East,98,7.0,10.0,87,0.00,,---,0.00,VWS V14.01,2013-02-09 00:48:00,
2013-02-08 18:54:00,29.3,25.9,30.22,East,94,2.0,10.0,87,0.00,,---,0.00,VWS V14.01,2013-02-09 00:54:00,
2013-02-08 19:00:00,29.2,25.8,30.22,East,91,3.0,10.0,87,0.00,,---,0.00,VWS V14.01,2013-02-09 01:00:00,
2013-02-08 19:06:00,29.1,25.7,30.22,ESE,113,4.0,9.0,87,0.00,,---,0.00,VWS V14.01,2013-02-09 01:06:00,
2013-02-08 19:12:00,29.0,25.6,30.22,ENE,74,3.0,11.0,87,0.00,,---,0.00,VWS V14.01,2013-02-09 01:12:00,
2013-02-08 19:18:00,28.8,25.7,30.22,ESE,102,3.0,11.0,88,0.00,,---,0.00,VWS V14.01,2013-02-09 01:18:00,
2013-02-08 19:24:00,28.7,25.6,30.21,East,100,8.0,11.0,88,0.00,,---,0.00,VWS V14.01,2013-02-09 01:24:00,
2013-02-08 19:30:00,28.6,25.5,30.21,East,95,6.0,13.0,88,0.00,,---,0.00,VWS V14.01,2013-02-09 01:30:00,
2013-02-08 19:36:00,28.5,25.7,30.20,ESE,105,7.0,13.0,89,0.00,,---,0.00,VWS V14.01,2013-02-09 01:36:00,
2013-02-08 19:42:00,28.5,25.7,30.21,ESE,123,8.0,13.0,89,0.00,,---,0.00,VWS V14.01,2013-02-09 01:42:00,
2013-02-08 19:48:00,28.5,25.7,30.20,ESE,121,8.0,13.0,89,0.00,,---,0.00,VWS V14.01,2013-02-09 01:48:00,
2013-02-08 19:54:00,28.4,25.6,30.20,ESE,119,8.0,13.0,89,0.00,,---,0.00,VWS V14.01,2013-02-09 01:54:00,
2013-02-08 20:00:00,28.3,25.5,30.20,East,101,8.0,13.0,89,0.00,,---,0.00,VWS V14.01,2013-02-09 02:00:00,
2013-02-08 20:06:00,28.3,25.5,30.20,ESE,121,5.0,14.0,89,0.00,,---,0.00,VWS V14.01,2013-02-09 02:06:00,
2013-02-08 20:12:00,28.3,25.5,30.20,ESE,105,8.0,14.0,89,0.00,,---,0.00,VWS V14.01,2013-02-09 02:12:00,
2013-02-08 20:18:00,28.3,25.5,30.20,ESE,116,8.0,14.0,89,0.00,,---,0.00,VWS V14.01,2013-02-09 02:18:00,
2013-02-08 20:24:00,28.2,25.4,30.20,ESE,102,7.0,14.0,89,0.00,,---,0.00,VWS V14.01,2013-02-09 02:24:00,
2013-02-08 20:30:00,28.1,25.3,30.20,ESE,103,8.0,14.0,89,0.00,,---,0.00,VWS V14.01,2013-02-09 02:30:00,
2013-02-08 20:36:00,28.0,25.2,30.20,ESE,116,7.0,10.0,89,0.00,,---,0.00,VWS V14.01,2013-02-09 02:36:00,
2013-02-08 20:42:00,27.9,25.1,30.20,ESE,109,7.0,10.0,89,0.00,,---,0.00,VWS V14.01,2013-02-09 02:42:00,
2013-02-08 20:48:00,27.8,25.0,30.20,ESE,120,7.0,10.0,89,0.00,,---,0.00,VWS V14.01,2013-02-09 02:48:00,
2013-02-08 20:55:00,27.7,24.9,30.20,ESE,104,4.0,10.0,89,0.00,,---,0.00,VWS V14.01,2013-02-09 02:55:00,
2013-02-08 21:01:00,27.8,25.2,30.20,ESE,119,8.0,10.0,90,0.00,,---,0.00,VWS V14.01,2013-02-09 03:01:00,
2013-02-08 21:07:00,28.0,25.5,30.19,ESE,102,7.0,11.0,90,0.00,,---,0.00,VWS V14.01,2013-02-09 03:07:00,
2013-02-08 21:13:00,28.2,25.4,30.18,ESE,103,3.0,11.0,89,0.00,,---,0.00,VWS V14.01,2013-02-09 03:13:00,
2013-02-08 21:19:00,28.2,25.4,30.18,ESE,111,8.0,12.0,89,0.00,,---,0.00,VWS V14.01,2013-02-09 03:19:00,
2013-02-08 21:25:00,28.3,25.5,30.19,ESE,107,3.0,12.0,89,0.00,,---,0.00,VWS V14.01,2013-02-09 03:25:00,
2013-02-08 21:31:00,28.3,25.5,30.18,ESE,109,5.0,12.0,89,0.00,,---,0.00,VWS V14.01,2013-02-09 03:31:00,
2013-02-08 21:37:00,28.3,25.5,30.18,ESE,115,5.0,9.0,89,0.00,,---,0.00,VWS V14.01,2013-02-09 03:37:00,
2013-02-08 21:43:00,28.3,25.5,30.18,ESE,113,7.0,9.0,89,0.00,,---,0.00,VWS V14.01,2013-02-09 03:43:00,
2013-02-08 21:49:00,28.4,25.6,30.18,ESE,121,8.0,9.0,89,0.00,,---,0.00,VWS V14.01,2013-02-09 03:49:00,
2013-02-08 21:55:00,28.5,25.7,30.18,SE,126,5.0,10.0,89,0.00,,---,0.00,VWS V14.01,2013-02-09 03:55:00,
2013-02-08 22:01:00,28.6,25.8,30.18,ESE,103,5.0,10.0,89,0.00,,---,0.00,VWS V14.01,2013-02-09 04:01:00,
2013-02-08 22:07:00,28.7,25.6,30.19,ESE,106,2.0,10.0,88,0.00,,---,0.00,VWS V14.01,2013-02-09 04:07:00,
2013-02-08 22:13:00,28.6,25.5,30.19,ESE,113,3.0,10.0,88,0.00,,---,0.00,VWS V14.01,2013-02-09 04:13:00,
2013-02-08 22:19:00,28.5,25.4,30.20,ESE,109,5.0,10.0,88,0.00,,---,0.00,VWS V14.01,2013-02-09 04:19:00,
2013-02-08 22:25:00,28.5,25.7,30.19,East,94,11.0,11.0,89,0.00,,---,0.00,VWS V14.01,2013-02-09 04:25:00,
2013-02-08 22:31:00,28.5,25.7,30.20,ESE,115,4.0,11.0,89,0.00,,---,0.00,VWS V14.01,2013-02-09 04:31:00,
2013-02-08 22:37:00,28.5,25.7,30.20,East,95,8.0,9.0,89,0.00,,---,0.00,VWS V14.01,2013-02-09 04:37:00,
2013-02-08 22:43:00,28.4,25.6,30.20,ESE,114,3.0,10.0,89,0.00,,---,0.00,VWS V14.01,2013-02-09 04:43:00,
2013-02-08 22:49:00,28.3,25.5,30.19,ESE,111,9.0,11.0,89,0.00,,---,0.00,VWS V14.01,2013-02-09 04:49:00,
2013-02-08 22:56:00,28.3,25.5,30.19,ESE,109,4.0,11.0,89,0.00,,---,0.00,VWS V14.01,2013-02-09 04:56:00,
2013-02-08 23:00:00,28.1,25.3,30.19,ESE,114,7.0,11.0,89,0.00,,---,0.00,VWS V14.01,2013-02-09 05:00:00,
2013-02-08 23:01:00,28.1,25.3,30.19,ESE,120,5.0,11.0,89,0.00,,---,0.00,VWS V14.01,2013-02-09 05:01:00,
2013-02-08 23:02:00,28.1,25.3,30.19,SE,128,5.0,7.0,89,0.00,,---,0.00,VWS V14.01,2013-02-09 05:02:00,
2013-02-08 23:04:00,28.1,25.3,30.19,East,87,6.0,10.0,89,0.00,,---,0.00,VWS V14.01,2013-02-09 05:04:00,
2013-02-08 23:10:00,28.0,25.2,30.19,ESE,118,4.0,10.0,89,0.00,,---,0.00,VWS V14.01,2013-02-09 05:10:00,
2013-02-08 23:16:00,27.9,25.1,30.20,SE,125,5.0,10.0,89,0.00,,---,0.00,VWS V14.01,2013-02-09 05:16:00,
2013-02-08 23:22:00,27.9,25.4,30.19,East,92,6.0,10.0,90,0.00,,---,0.00,VWS V14.01,2013-02-09 05:22:00,
2013-02-08 23:28:00,27.9,25.4,30.19,SE,125,6.0,10.0,90,0.00,,---,0.00,VWS V14.01,2013-02-09 05:28:00,
2013-02-08 23:34:00,27.8,25.2,30.19,ESE,119,5.0,9.0,90,0.00,,---,0.00,VWS V14.01,2013-02-09 05:34:00,
2013-02-08 23:40:00,27.8,25.2,30.19,ESE,108,4.0,10.0,90,0.00,,---,0.00,VWS V14.01,2013-02-09 05:40:00,
2013-02-08 23:46:00,27.6,25.1,30.19,ESE,115,7.0,11.0,90,0.00,,---,0.00,VWS V14.01,2013-02-09 05:46:00,
2013-02-08 23:52:00,27.6,25.1,30.19,SE,125,6.0,11.0,90,0.00,,---,0.00,VWS V14.01,2013-02-09 05:52:00,
2013-02-08 23:58:00,27.5,25.2,30.20,ESE,120,5.0,11.0,91,0.00,,---,0.00,VWS V14.01,2013-02-09 05:58:00,